createdAt,value
2022-07-29T00:00:45.992Z,5.68
2022-07-29T00:03:14.785Z,6.00
2022-07-29T00:05:43.455Z,5.05
2022-07-29T00:08:12.746Z,5.43
2022-07-29T00:10:40.673Z,5.78
2022-07-29T00:13:08.817Z,6.85
2022-07-29T00:15:36.667Z,5.53
2022-07-29T00:18:05.175Z,5.75
2022-07-29T00:20:33.173Z,6.38
2022-07-29T00:23:01.049Z,5.10
2022-07-29T00:25:28.825Z,5.70
2022-07-29T00:27:56.650Z,5.53
2022-07-29T00:30:24.528Z,5.30
2022-07-29T00:32:52.296Z,5.97
2022-07-29T00:35:38.647Z,6.20
2022-07-29T00:38:06.467Z,5.70
2022-07-29T00:40:34.345Z,5.65
2022-07-29T00:43:02.981Z,5.75
2022-07-29T00:45:31.161Z,5.78
2022-07-29T00:47:58.988Z,6.28
2022-07-29T00:50:27.574Z,6.95
2022-07-29T00:52:55.463Z,5.30
2022-07-29T00:55:23.593Z,5.55
2022-07-29T00:57:52.647Z,5.68
2022-07-29T01:00:26.425Z,5.65
2022-07-29T01:02:54.350Z,5.13
2022-07-29T01:05:25.640Z,5.13
2022-07-29T01:08:16.522Z,5.13
2022-07-29T01:10:46.830Z,5.25
2022-07-29T01:13:15.819Z,5.03
2022-07-29T01:15:50.676Z,5.07
2022-07-29T01:18:32.798Z,5.00
2022-07-29T01:21:22.289Z,5.22
2022-07-29T01:24:27.191Z,5.00
2022-07-29T01:27:32.735Z,5.10
2022-07-29T01:30:05.198Z,5.05
2022-07-29T01:32:39.123Z,5.57
2022-07-29T01:35:22.072Z,5.00
2022-07-29T01:38:21.387Z,4.97
2022-07-29T01:41:06.147Z,5.07
2022-07-29T01:44:02.418Z,5.05
2022-07-29T01:46:38.139Z,5.20
2022-07-29T01:49:17.727Z,4.95
2022-07-29T01:52:08.682Z,4.97
2022-07-29T01:54:46.984Z,5.90
2022-07-29T01:57:21.313Z,5.30
2022-07-29T01:59:51.536Z,5.45
2022-07-29T02:02:20.874Z,5.10
2022-07-29T02:04:50.883Z,5.60
2022-07-29T02:07:22.901Z,5.38
2022-07-29T02:09:53.279Z,4.97
2022-07-29T02:12:23.047Z,5.57
2022-07-29T02:14:55.235Z,4.95
2022-07-29T02:17:30.270Z,5.10
2022-07-29T02:20:01.519Z,5.45
2022-07-29T02:22:34.603Z,5.70
2022-07-29T02:25:03.713Z,4.57
2022-07-29T02:27:34.520Z,5.32
2022-07-29T02:30:04.878Z,4.85
2022-07-29T02:32:36.490Z,5.03
2022-07-29T02:35:05.530Z,5.00
2022-07-29T02:37:34.609Z,4.80
2022-07-29T02:40:03.199Z,4.88
2022-07-29T02:42:34.838Z,4.85
2022-07-29T02:45:02.678Z,4.68
2022-07-29T02:47:46.099Z,5.65
2022-07-29T02:50:42.362Z,4.75
2022-07-29T02:53:38.279Z,4.95
2022-07-29T02:56:12.088Z,5.30
2022-07-29T02:58:46.117Z,4.10
2022-07-29T03:01:21.869Z,4.85
2022-07-29T03:03:54.025Z,4.32
2022-07-29T03:06:37.806Z,4.15
2022-07-29T03:09:12.961Z,4.50
2022-07-29T03:11:50.465Z,4.65
2022-07-29T03:14:21.032Z,4.55
2022-07-29T03:16:51.109Z,5.00
2022-07-29T03:19:21.237Z,4.57
2022-07-29T03:21:49.496Z,4.20
2022-07-29T03:24:36.464Z,4.05
2022-07-29T03:27:06.468Z,3.92
2022-07-29T03:29:34.797Z,4.53
2022-07-29T03:32:07.245Z,4.95
2022-07-29T03:34:37.857Z,4.65
2022-07-29T03:37:07.693Z,4.57
2022-07-29T03:39:42.425Z,5.18
2022-07-29T03:42:15.011Z,5.10
2022-07-29T03:44:46.632Z,5.10
2022-07-29T03:47:18.543Z,4.97
2022-07-29T03:49:52.874Z,5.68
2022-07-29T03:52:22.117Z,8.02
2022-07-29T03:54:50.261Z,5.65
2022-07-29T03:57:23.417Z,5.30
2022-07-29T03:59:53.258Z,5.05
2022-07-29T04:02:24.474Z,5.50
2022-07-29T04:04:55.179Z,5.47
2022-07-29T04:07:23.067Z,7.20
2022-07-29T04:09:50.816Z,8.18
2022-07-29T04:12:18.632Z,6.90
2022-07-29T04:14:46.800Z,7.43
2022-07-29T04:17:14.624Z,7.03
2022-07-29T04:19:42.366Z,6.85
2022-07-29T04:22:10.175Z,6.40
2022-07-29T04:24:37.988Z,6.15
2022-07-29T08:39:19.530Z,6.32
2022-07-29T08:41:57.428Z,6.65
2022-07-29T08:44:30.968Z,6.22
2022-07-29T08:46:59.164Z,6.55
2022-07-29T08:49:27.031Z,6.57
2022-07-29T08:51:57.090Z,6.72
2022-07-29T08:54:25.865Z,6.00
2022-07-29T08:56:54.906Z,6.22
2022-07-29T08:59:26.182Z,6.82
2022-07-29T09:01:55.637Z,6.50
2022-07-29T09:04:28.353Z,5.65
2022-07-29T09:06:59.470Z,5.78
2022-07-29T09:09:27.965Z,5.80
2022-07-29T09:11:56.534Z,5.40
2022-07-29T09:14:24.569Z,7.15
2022-07-29T09:16:57.452Z,6.28
2022-07-29T09:19:32.793Z,5.85
2022-07-29T09:22:04.220Z,7.10
2022-07-29T09:24:47.773Z,4.82
2022-07-29T09:27:18.546Z,5.78
2022-07-29T09:29:46.352Z,5.68
2022-07-29T09:32:14.284Z,5.40
2022-07-29T09:34:42.092Z,5.65
2022-07-29T09:37:09.963Z,5.10
2022-07-29T09:39:46.718Z,5.18
2022-07-29T09:42:28.157Z,5.03
2022-07-29T09:44:56.026Z,5.65
2022-07-29T09:47:40.964Z,5.50
2022-07-29T09:50:09.279Z,5.88
2022-07-29T09:52:49.510Z,5.00
2022-07-29T09:55:19.957Z,5.43
2022-07-29T09:57:48.252Z,5.85
2022-07-29T10:00:22.789Z,7.63
2022-07-29T10:02:51.979Z,5.85
2022-07-29T10:05:25.370Z,5.50
2022-07-29T10:07:58.618Z,5.45
2022-07-29T10:10:37.753Z,5.60
2022-07-29T10:13:16.088Z,5.07
2022-07-29T10:15:46.924Z,5.35
2022-07-29T10:18:18.315Z,5.13
2022-07-29T10:20:46.643Z,5.55
2022-07-29T10:23:15.014Z,4.72
2022-07-29T10:25:46.227Z,5.07
2022-07-29T10:28:16.731Z,4.53
2022-07-29T10:30:46.675Z,4.80
2022-07-29T10:33:39.926Z,4.40
2022-07-29T10:36:43.296Z,4.90
2022-07-29T10:39:55.198Z,4.70
2022-07-29T10:42:33.304Z,4.13
2022-07-29T10:45:04.875Z,4.65
2022-07-29T10:47:35.243Z,5.00
2022-07-29T10:50:06.226Z,4.68
2022-07-29T10:52:54.628Z,4.85
2022-07-29T10:55:39.412Z,5.00
2022-07-29T10:58:24.520Z,5.20
2022-07-29T11:00:55.001Z,4.50
2022-07-29T11:03:49.300Z,4.60
2022-07-29T11:09:34.827Z,3.55
2022-07-29T11:12:03.704Z,4.18
2022-07-29T11:15:02.675Z,5.00
2022-07-29T11:17:46.931Z,4.57
2022-07-29T11:20:49.891Z,4.68
2022-07-29T11:23:33.951Z,4.47
2022-07-29T11:26:14.800Z,4.80
2022-07-29T11:28:55.632Z,4.35
2022-07-29T11:31:45.039Z,4.47
2022-07-29T11:34:33.331Z,4.47
2022-07-29T11:37:12.483Z,4.22
2022-07-29T11:39:53.773Z,4.35
2022-07-29T11:42:30.455Z,4.35
2022-07-29T11:45:41.158Z,4.63
2022-07-29T11:48:05.271Z,4.53
2022-07-29T11:50:48.354Z,4.88
2022-07-29T11:53:17.246Z,4.30
2022-07-29T11:55:51.527Z,4.57
2022-07-29T11:58:24.975Z,4.90
2022-07-29T12:00:55.654Z,4.47
2022-07-29T12:03:33.613Z,5.00
2022-07-29T12:06:24.405Z,4.97
2022-07-29T12:08:52.313Z,5.35
2022-07-29T12:11:23.380Z,5.43
2022-07-29T12:13:52.783Z,4.97
2022-07-29T12:16:26.005Z,5.13
2022-07-29T12:19:03.779Z,4.70
2022-07-29T12:21:56.912Z,5.20
2022-07-29T12:24:27.617Z,4.88
2022-07-29T12:27:00.105Z,4.68
2022-07-29T12:29:34.929Z,5.25
2022-07-29T12:32:14.737Z,5.32
2022-07-29T12:34:47.799Z,5.25
2022-07-29T12:37:15.895Z,5.43
2022-07-29T12:39:43.880Z,5.63
2022-07-29T12:42:18.535Z,4.47
2022-07-29T12:44:51.645Z,5.20
2022-07-29T12:47:21.610Z,4.53
2022-07-29T12:49:51.199Z,5.38
2022-07-29T12:52:33.459Z,4.75
2022-07-29T12:55:02.193Z,4.22
2022-07-29T12:57:30.272Z,5.00
2022-07-29T13:00:06.472Z,5.07
2022-07-29T13:02:35.419Z,3.83
2022-07-29T13:05:07.586Z,4.60
2022-07-29T13:07:55.511Z,4.88
2022-07-29T13:10:26.195Z,4.82
2022-07-29T13:13:13.208Z,5.05
2022-07-29T13:15:44.349Z,4.10
2022-07-29T13:18:37.283Z,5.45
2022-07-29T13:21:14.886Z,5.60
2022-07-29T13:23:43.609Z,4.70
2022-07-29T13:26:12.962Z,4.22
2022-07-29T13:28:41.024Z,3.90
2022-07-29T13:31:12.507Z,4.88
2022-07-29T13:33:40.421Z,4.18
2022-07-29T13:36:09.165Z,5.47
2022-07-29T13:38:36.936Z,4.03
2022-07-29T13:41:05.134Z,3.42
2022-07-29T13:43:33.577Z,3.33
2022-07-29T13:46:01.473Z,3.90
2022-07-29T13:48:29.379Z,3.60
2022-07-29T13:50:58.053Z,4.22
2022-07-29T13:53:26.855Z,4.15
2022-07-29T13:55:56.161Z,4.07
2022-07-29T13:58:24.010Z,3.95
2022-07-29T14:00:51.971Z,4.38
2022-07-29T14:03:20.106Z,4.78
2022-07-29T14:05:48.170Z,4.10
2022-07-29T14:08:16.220Z,4.10
2022-07-29T14:10:44.181Z,4.45
2022-07-29T14:13:21.830Z,4.07
2022-07-29T14:15:53.958Z,4.07
2022-07-29T14:18:21.740Z,4.75
2022-07-29T14:20:49.734Z,4.00
2022-07-29T14:23:18.176Z,4.22
2022-07-29T14:25:49.387Z,3.45
2022-07-29T14:28:17.835Z,3.35
2022-07-29T14:30:45.704Z,3.22
2022-07-29T14:33:17.897Z,3.63
2022-07-29T14:35:47.457Z,2.95
2022-07-29T14:38:16.506Z,2.92
2022-07-29T14:40:44.642Z,3.28
2022-07-29T14:43:13.155Z,3.42
2022-07-29T14:45:42.011Z,2.92
2022-07-29T14:48:09.971Z,2.85
2022-07-29T14:50:37.935Z,3.00
2022-07-29T14:53:06.158Z,3.00
2022-07-29T14:55:34.003Z,3.05
2022-07-29T14:58:09.679Z,2.90
2022-07-29T15:00:38.913Z,2.90
2022-07-29T15:03:06.870Z,2.80
2022-07-29T15:05:39.912Z,2.67
2022-07-29T15:08:09.158Z,2.55
2022-07-29T15:10:37.416Z,2.92
2022-07-29T15:13:05.285Z,3.13
2022-07-29T15:15:33.123Z,2.70
2022-07-29T15:18:00.927Z,2.92
2022-07-29T15:20:28.728Z,2.58
2022-07-29T15:22:57.220Z,3.20
2022-07-29T15:25:28.227Z,2.70
2022-07-29T15:28:01.110Z,2.75
2022-07-29T15:30:33.650Z,2.75
2022-07-29T15:33:04.765Z,3.08
2022-07-29T15:35:33.245Z,3.08
2022-07-29T15:38:08.200Z,2.88
2022-07-29T15:40:38.179Z,2.67
2022-07-29T15:43:06.859Z,2.80
2022-07-29T15:45:42.673Z,2.92
2022-07-29T15:48:13.215Z,2.80
2022-07-29T15:50:42.903Z,3.42
2022-07-29T15:53:15.380Z,2.88
2022-07-29T15:55:43.127Z,3.10
2022-07-29T15:58:12.403Z,3.28
2022-07-29T16:00:40.147Z,2.72
2022-07-29T16:03:08.480Z,3.08
2022-07-29T16:05:36.266Z,3.13
2022-07-29T16:08:05.718Z,2.78
2022-07-29T16:10:33.677Z,2.53
2022-07-29T16:13:01.836Z,3.47
2022-07-29T16:15:29.598Z,3.00
2022-07-29T16:17:57.487Z,3.20
2022-07-29T16:20:25.509Z,2.85
2022-07-29T16:22:54.321Z,2.92
2022-07-29T16:25:29.588Z,3.35
2022-07-29T16:28:06.763Z,3.15
2022-07-29T16:30:35.810Z,3.03
2022-07-29T16:33:08.201Z,3.53
2022-07-29T16:35:40.146Z,3.20
2022-07-29T16:38:08.132Z,2.95
2022-07-29T16:40:35.943Z,3.40
2022-07-29T16:43:03.709Z,3.08
2022-07-29T16:45:32.635Z,3.03
2022-07-29T16:48:15.116Z,3.35
2022-07-29T16:50:46.283Z,3.03
2022-07-29T16:53:14.084Z,2.95
2022-07-29T16:55:42.072Z,3.67
2022-07-29T16:58:11.211Z,2.40
2022-07-29T17:00:39.704Z,3.00
2022-07-29T17:03:07.579Z,3.22
2022-07-29T17:05:52.701Z,2.90
2022-07-29T17:08:22.888Z,3.83
2022-07-29T17:10:50.874Z,3.40
2022-07-29T17:13:18.707Z,3.13
2022-07-29T17:15:46.547Z,3.92
2022-07-29T17:18:14.324Z,2.70
2022-07-29T17:20:42.729Z,2.67
2022-07-29T17:23:12.396Z,3.15
2022-07-29T17:25:40.716Z,3.20
2022-07-29T17:28:08.506Z,3.13
2022-07-29T17:30:36.284Z,2.80
2022-07-29T17:33:04.148Z,3.00
2022-07-29T17:35:50.502Z,3.00
2022-07-29T17:38:18.322Z,2.85
2022-07-29T17:40:46.092Z,2.70
2022-07-29T17:43:13.955Z,2.60
